Terminal Aerodrome Forecast
Issued by NWS Cleveland, OH

Home | Current Version | Previous Version | Text Only | Print | Product List | Glossary On
Versions: 1 2 3 4 5 6 7 8 9 10 11 12 13 14
000
FTUS41 KCLE 261120
TAFCAK
TAF
KCAK 261120Z 2612/2712 14010KT P6SM OVC080
     FM261500 16012KT P6SM OVC045
     FM262000 18012KT 5SM -SHRA BR VCTS OVC025CB
      TEMPO 2620/2624 4SM -SHRA BR OVC035
     FM270200 16004KT 4SM BR SCT012 BKN035
     FM270600 21007KT 2SM BR OVC008=

USA.gov is the U.S. government's official web portal to all federal, state and local government web resources and services.